createdAt,value
2018-07-28T00:01:17.307Z,19.81
2018-07-28T00:03:46.106Z,19.63
2018-07-28T00:06:15.055Z,19.77
2018-07-28T00:08:43.979Z,19.76
2018-07-28T00:11:12.832Z,19.66
2018-07-28T00:13:41.676Z,19.62
2018-07-28T00:16:10.514Z,19.66
2018-07-28T00:18:39.333Z,19.43
2018-07-28T00:21:08.122Z,19.59
2018-07-28T00:23:36.902Z,19.58
2018-07-28T00:26:10.896Z,19.60
2018-07-28T00:28:39.676Z,19.67
2018-07-28T00:31:08.502Z,19.64
2018-07-28T00:33:37.341Z,19.67
2018-07-28T00:36:06.117Z,19.59
2018-07-28T00:38:34.925Z,19.45
2018-07-28T00:41:03.843Z,19.51
2018-07-28T00:43:32.636Z,19.51
2018-07-28T00:46:01.439Z,19.48
2018-07-28T00:48:30.270Z,19.28
2018-07-28T00:50:59.041Z,19.26
2018-07-28T00:53:27.813Z,19.26
2018-07-28T00:55:56.660Z,19.31
2018-07-28T00:58:25.462Z,19.32
2018-07-28T01:00:54.229Z,19.41
2018-07-28T01:03:23.108Z,19.31
2018-07-28T01:05:51.925Z,19.41
2018-07-28T01:08:20.704Z,19.39
2018-07-28T01:10:49.488Z,19.23
2018-07-28T01:13:18.289Z,18.95
2018-07-28T01:15:47.115Z,18.69
2018-07-28T01:18:15.916Z,18.68
2018-07-28T01:20:44.765Z,18.88
2018-07-28T01:23:13.561Z,18.65
2018-07-28T01:25:42.395Z,18.99
2018-07-28T01:28:11.232Z,18.88
2018-07-28T01:30:39.985Z,19.03
2018-07-28T01:33:08.960Z,18.71
2018-07-28T01:35:37.854Z,18.25
2018-07-28T01:38:06.663Z,18.54
2018-07-28T01:40:35.495Z,18.18
2018-07-28T01:43:04.322Z,18.02
2018-07-28T01:45:33.121Z,18.26
2018-07-28T01:48:01.931Z,18.55
2018-07-28T01:50:30.705Z,18.51
2018-07-28T01:52:59.511Z,18.31
2018-07-28T01:55:28.304Z,17.94
2018-07-28T01:57:57.115Z,17.84
2018-07-28T02:00:25.982Z,18.17
2018-07-28T02:02:54.776Z,18.14
2018-07-28T02:05:23.615Z,17.79
2018-07-28T02:07:52.420Z,18.09
2018-07-28T02:10:21.309Z,18.21
2018-07-28T02:12:50.125Z,17.82
2018-07-28T02:15:18.930Z,18.02
2018-07-28T02:17:47.819Z,18.03
2018-07-28T02:20:16.629Z,18.21
2018-07-28T02:22:45.406Z,17.91
2018-07-28T02:25:14.208Z,17.79
2018-07-28T02:27:42.982Z,18.09
2018-07-28T02:30:11.764Z,18.24
2018-07-28T02:32:40.570Z,18.24
2018-07-28T02:35:09.579Z,18.48
2018-07-28T02:37:38.513Z,18.56
2018-07-28T02:40:07.493Z,18.29
2018-07-28T02:42:36.333Z,18.26
2018-07-28T02:45:05.470Z,18.40
2018-07-28T02:47:34.309Z,18.39
2018-07-28T02:50:03.093Z,18.41
2018-07-28T02:52:31.871Z,18.27
2018-07-28T02:55:00.669Z,18.07
2018-07-28T02:57:29.500Z,18.07
2018-07-28T02:59:58.253Z,17.93
2018-07-28T03:02:27.051Z,17.94
2018-07-28T03:04:55.846Z,18.06
2018-07-28T03:07:24.646Z,17.90
2018-07-28T03:09:53.432Z,17.90
2018-07-28T03:12:22.230Z,18.08
2018-07-28T03:14:51.018Z,18.20
2018-07-28T03:17:19.857Z,18.27
2018-07-28T03:19:48.622Z,18.37
2018-07-28T03:22:17.437Z,18.33
2018-07-28T03:24:46.226Z,18.22
2018-07-28T03:27:15.032Z,18.48
2018-07-28T03:29:43.833Z,18.32
2018-07-28T03:32:12.624Z,18.43
2018-07-28T03:34:41.443Z,18.57
2018-07-28T03:37:10.264Z,18.58
2018-07-28T03:39:39.047Z,18.61
2018-07-28T03:42:07.870Z,18.63
2018-07-28T03:44:36.683Z,18.71
2018-07-28T03:47:05.510Z,18.65
2018-07-28T03:49:34.267Z,18.73
2018-07-28T03:52:03.020Z,18.81
2018-07-28T03:54:31.801Z,18.83
2018-07-28T03:57:00.600Z,18.80
2018-07-28T03:59:29.381Z,18.83
2018-07-28T04:01:58.186Z,18.85
2018-07-28T04:04:27.006Z,18.65
2018-07-28T04:06:55.761Z,18.65
2018-07-28T04:09:24.526Z,18.73
2018-07-28T04:11:53.302Z,18.23
2018-07-28T04:14:22.073Z,18.80
2018-07-28T04:16:50.885Z,18.91
2018-07-28T04:19:19.673Z,18.94
2018-07-28T04:21:48.457Z,18.91
2018-07-28T04:24:17.230Z,18.75
2018-07-28T04:26:46.071Z,18.77
2018-07-28T04:29:14.837Z,18.67
2018-07-28T04:31:43.629Z,18.63
2018-07-28T04:34:12.390Z,18.51
2018-07-28T04:36:41.228Z,18.66
2018-07-28T04:39:12.168Z,18.54
2018-07-28T04:41:41.534Z,18.69
2018-07-28T04:44:10.617Z,18.75
2018-07-28T04:46:39.423Z,18.92
2018-07-28T04:49:08.720Z,19.03
2018-07-28T04:51:38.122Z,18.99
2018-07-28T04:54:06.909Z,19.21
2018-07-28T04:56:35.724Z,19.38
2018-07-28T04:59:04.508Z,19.56
2018-07-28T05:01:33.302Z,19.61
2018-07-28T05:04:02.137Z,19.70
2018-07-28T05:06:30.965Z,19.71
2018-07-28T05:08:59.753Z,19.92
2018-07-28T05:11:28.530Z,20.14
2018-07-28T05:13:57.333Z,20.13
2018-07-28T05:16:26.149Z,20.13
2018-07-28T05:18:54.957Z,20.44
2018-07-28T05:21:23.750Z,20.44
2018-07-28T05:23:52.662Z,20.22
2018-07-28T05:26:21.361Z,20.20
2018-07-28T05:28:50.271Z,20.32
2018-07-28T05:31:21.016Z,20.45
2018-07-28T05:33:49.794Z,20.56
2018-07-28T05:36:18.610Z,20.77
2018-07-28T05:38:47.585Z,20.86
2018-07-28T05:41:16.390Z,20.72
2018-07-28T05:43:45.269Z,20.86
2018-07-28T05:46:14.237Z,20.83
2018-07-28T05:48:43.291Z,20.82
2018-07-28T05:51:12.309Z,20.79
2018-07-28T05:53:41.101Z,20.70
2018-07-28T05:56:11.715Z,20.79
2018-07-28T05:58:41.576Z,20.85
2018-07-28T06:01:10.428Z,20.91
2018-07-28T06:03:39.209Z,21.04
2018-07-28T06:06:08.060Z,21.02
2018-07-28T06:08:36.867Z,21.09
2018-07-28T06:11:05.682Z,21.07
2018-07-28T06:13:34.507Z,20.71
2018-07-28T06:16:03.351Z,21.10
2018-07-28T06:18:32.114Z,21.15
2018-07-28T06:21:00.913Z,21.17
2018-07-28T06:23:29.738Z,21.16
2018-07-28T06:25:58.538Z,21.16
2018-07-28T06:28:27.350Z,21.18
2018-07-28T06:30:56.170Z,21.23
2018-07-28T06:33:24.929Z,21.24
2018-07-28T06:35:53.765Z,21.26
2018-07-28T06:38:22.565Z,21.38
2018-07-28T06:40:51.354Z,21.44
2018-07-28T06:43:20.135Z,21.47
2018-07-28T06:45:48.937Z,21.40
2018-07-28T06:48:17.717Z,21.54
2018-07-28T06:50:46.592Z,21.69
2018-07-28T06:53:15.412Z,21.66
2018-07-28T06:55:44.154Z,21.66
2018-07-28T06:58:12.918Z,21.68
2018-07-28T07:00:41.709Z,21.76
2018-07-28T07:03:10.450Z,21.74
2018-07-28T07:05:39.201Z,21.78
2018-07-28T07:08:08.143Z,21.73
2018-07-28T07:10:36.937Z,21.70
2018-07-28T07:13:05.787Z,21.80
2018-07-28T07:15:34.678Z,21.85
2018-07-28T07:18:03.471Z,21.96
2018-07-28T07:20:32.227Z,21.91
2018-07-28T07:23:00.998Z,21.99
2018-07-28T07:25:29.823Z,22.10
2018-07-28T07:27:58.625Z,22.12
2018-07-28T07:30:27.515Z,22.10
2018-07-28T07:32:56.349Z,22.12
2018-07-28T07:35:25.776Z,22.12
2018-07-28T07:37:54.585Z,22.17
2018-07-28T07:40:23.419Z,22.18
2018-07-28T07:42:52.256Z,22.14
2018-07-28T07:45:21.159Z,22.29
2018-07-28T07:47:49.974Z,22.29
2018-07-28T07:50:18.805Z,22.27
2018-07-28T07:52:47.609Z,22.33
2018-07-28T07:55:16.421Z,22.26
2018-07-28T07:57:45.301Z,21.29
2018-07-28T08:00:14.163Z,22.25
2018-07-28T08:02:43.014Z,22.21
2018-07-28T08:05:11.815Z,22.26
2018-07-28T08:07:40.645Z,22.32
2018-07-28T08:10:09.509Z,22.35
2018-07-28T08:12:38.353Z,22.44
2018-07-28T08:15:07.553Z,22.48
2018-07-28T08:17:36.396Z,22.47
2018-07-28T08:20:05.865Z,22.50
2018-07-28T08:22:34.713Z,22.51
2018-07-28T08:25:04.382Z,22.53
2018-07-28T08:27:33.232Z,22.57
2018-07-28T08:30:02.063Z,22.60
2018-07-28T08:32:30.933Z,22.63
2018-07-28T08:34:59.681Z,22.69
2018-07-28T08:37:28.610Z,22.75
2018-07-28T08:39:57.424Z,22.73
2018-07-28T08:42:26.262Z,22.74
2018-07-28T08:44:55.054Z,22.86
2018-07-28T08:47:23.820Z,22.82
2018-07-28T08:49:52.619Z,22.80
2018-07-28T08:52:21.450Z,22.79
2018-07-28T08:54:50.281Z,22.89
2018-07-28T08:57:19.100Z,22.89
2018-07-28T08:59:47.904Z,22.87
2018-07-28T09:02:16.670Z,22.93
2018-07-28T09:04:45.418Z,22.95
2018-07-28T09:07:14.353Z,22.92
2018-07-28T09:09:43.144Z,23.00
2018-07-28T09:12:11.965Z,23.00
2018-07-28T09:14:40.742Z,23.04
2018-07-28T09:17:09.532Z,23.06
2018-07-28T09:19:38.316Z,23.08
2018-07-28T09:22:07.117Z,23.09
2018-07-28T09:24:35.905Z,23.11
2018-07-28T09:27:04.804Z,23.21
2018-07-28T09:29:33.590Z,23.27
2018-07-28T09:32:02.346Z,23.29
2018-07-28T09:34:31.135Z,23.42
2018-07-28T09:36:59.900Z,23.47
2018-07-28T09:39:28.714Z,23.47
2018-07-28T09:41:57.484Z,23.53
2018-07-28T09:44:26.231Z,23.51
2018-07-28T09:46:55.026Z,23.58
2018-07-28T09:49:23.844Z,23.58
2018-07-28T09:51:52.612Z,23.59
2018-07-28T09:54:21.375Z,23.65
2018-07-28T09:56:50.174Z,23.64
2018-07-28T09:59:18.981Z,23.64
2018-07-28T10:01:47.743Z,23.69
2018-07-28T10:04:16.525Z,23.77
2018-07-28T10:07:04.042Z,23.78
2018-07-28T10:09:32.865Z,23.82
2018-07-28T10:12:01.648Z,23.85
2018-07-28T10:14:30.429Z,23.88
2018-07-28T10:16:59.238Z,23.94
2018-07-28T10:19:28.006Z,23.97
2018-07-28T10:21:56.797Z,23.99
2018-07-28T10:24:25.573Z,24.03
2018-07-28T10:26:54.330Z,24.09
2018-07-28T10:29:23.345Z,24.14
2018-07-28T10:31:52.137Z,24.22
2018-07-28T10:34:20.899Z,24.21
2018-07-28T10:36:49.682Z,24.23
2018-07-28T10:39:18.466Z,24.29
2018-07-28T10:41:47.250Z,24.27
2018-07-28T10:44:16.064Z,24.25
2018-07-28T10:46:44.841Z,24.29
2018-07-28T10:49:13.649Z,24.32
2018-07-28T10:51:42.444Z,24.34
2018-07-28T10:54:11.229Z,24.32
2018-07-28T10:56:40.011Z,24.32
2018-07-28T10:59:08.857Z,24.33
2018-07-28T11:01:37.675Z,24.32
2018-07-28T11:04:06.800Z,24.33
2018-07-28T11:06:35.624Z,24.34
2018-07-28T11:09:06.181Z,24.38
2018-07-28T11:11:34.958Z,24.40
2018-07-28T11:14:03.892Z,24.45
2018-07-28T11:16:32.645Z,24.54
2018-07-28T11:19:01.515Z,24.55
2018-07-28T11:21:30.647Z,24.54
2018-07-28T11:24:00.712Z,24.55
2018-07-28T11:26:29.513Z,24.59
2018-07-28T11:28:58.382Z,24.60
2018-07-28T11:31:38.096Z,24.61
2018-07-28T11:34:17.872Z,24.66
2018-07-28T11:36:57.695Z,24.68
2018-07-28T11:39:37.664Z,24.70
2018-07-28T11:42:17.305Z,24.73
2018-07-28T11:45:01.990Z,24.73
2018-07-28T11:47:30.776Z,24.74
2018-07-28T11:49:59.541Z,24.75
2018-07-28T11:52:28.346Z,24.75
2018-07-28T11:54:57.119Z,24.72
2018-07-28T11:57:25.972Z,24.77
2018-07-28T11:59:54.806Z,24.78
2018-07-28T12:02:23.587Z,24.82
2018-07-28T12:04:52.480Z,24.85
2018-07-28T12:07:21.639Z,24.94
2018-07-28T12:09:50.418Z,24.94
2018-07-28T12:12:19.216Z,24.93
2018-07-28T12:14:47.993Z,24.96
2018-07-28T12:17:16.815Z,25.01
2018-07-28T12:19:45.589Z,25.02
2018-07-28T12:22:14.466Z,25.09
2018-07-28T12:24:43.278Z,25.08
2018-07-28T12:27:12.107Z,25.10
2018-07-28T12:29:41.238Z,25.07
2018-07-28T12:32:10.217Z,25.07
2018-07-28T12:34:39.049Z,25.10
2018-07-28T12:37:07.883Z,25.14
2018-07-28T12:39:36.678Z,25.20
2018-07-28T12:42:05.531Z,25.28
2018-07-28T12:44:34.305Z,25.27
2018-07-28T12:47:03.092Z,25.30
2018-07-28T12:49:31.881Z,25.38
2018-07-28T12:52:00.653Z,25.37
2018-07-28T12:54:29.440Z,25.34
2018-07-28T12:56:58.221Z,25.34
2018-07-28T12:59:26.985Z,25.38
2018-07-28T13:01:55.790Z,25.41
2018-07-28T13:04:24.562Z,25.42
2018-07-28T13:06:53.529Z,25.41
2018-07-28T13:09:22.329Z,25.37
2018-07-28T13:11:51.126Z,25.35
2018-07-28T13:14:19.902Z,25.35
2018-07-28T13:16:48.724Z,25.36
2018-07-28T13:19:17.574Z,25.36
2018-07-28T13:21:46.414Z,25.40
2018-07-28T13:24:15.247Z,25.39
2018-07-28T13:26:44.081Z,25.41
2018-07-28T13:29:12.903Z,25.43
2018-07-28T13:31:41.742Z,25.48
2018-07-28T13:34:10.540Z,25.50
2018-07-28T13:36:39.329Z,25.47
2018-07-28T13:39:08.885Z,25.44
2018-07-28T13:41:37.876Z,25.42
2018-07-28T13:44:06.889Z,25.44
2018-07-28T13:46:35.708Z,25.49
2018-07-28T13:49:04.914Z,25.51
2018-07-28T13:51:33.894Z,25.49
2018-07-28T13:54:02.732Z,24.42
2018-07-28T13:56:31.573Z,25.53
2018-07-28T13:59:00.470Z,25.53
2018-07-28T14:01:29.315Z,25.56
2018-07-28T14:03:58.155Z,25.54
2018-07-28T14:06:27.001Z,25.57
2018-07-28T14:08:55.828Z,25.57
2018-07-28T14:11:24.662Z,25.56
2018-07-28T14:13:53.741Z,25.57
2018-07-28T14:16:22.589Z,25.59
2018-07-28T14:18:51.475Z,25.63
2018-07-28T14:21:20.297Z,25.65
2018-07-28T14:23:49.094Z,25.66
2018-07-28T14:26:17.938Z,25.67
2018-07-28T14:28:46.759Z,25.70
2018-07-28T14:31:15.538Z,25.67
2018-07-28T14:33:44.431Z,25.67
2018-07-28T14:36:13.218Z,25.69
2018-07-28T14:38:42.054Z,25.69
2018-07-28T14:41:10.878Z,25.69
2018-07-28T14:43:39.681Z,25.72
2018-07-28T14:46:08.513Z,25.68
2018-07-28T14:48:37.340Z,25.70
2018-07-28T14:51:06.185Z,25.65
2018-07-28T14:53:34.974Z,25.68
2018-07-28T14:56:03.750Z,25.66
2018-07-28T14:58:32.693Z,25.67
2018-07-28T15:01:01.478Z,25.69
2018-07-28T15:03:30.259Z,25.65
2018-07-28T15:05:59.185Z,25.73
2018-07-28T15:08:27.951Z,25.73
2018-07-28T15:10:56.734Z,25.72
2018-07-28T15:13:25.587Z,25.74
2018-07-28T15:15:54.379Z,25.74
2018-07-28T15:18:23.173Z,25.76
2018-07-28T15:20:52.144Z,25.73
2018-07-28T15:23:20.969Z,25.69
2018-07-28T15:25:49.811Z,25.62
2018-07-28T15:28:18.643Z,25.67
2018-07-28T15:30:47.442Z,25.71
2018-07-28T15:33:16.230Z,25.70
2018-07-28T15:35:45.020Z,25.67
2018-07-28T15:38:13.821Z,25.70
2018-07-28T15:40:42.653Z,25.68
2018-07-28T15:43:11.441Z,25.68
2018-07-28T15:45:40.282Z,25.67
2018-07-28T15:48:09.135Z,25.66
2018-07-28T15:50:37.877Z,25.66
2018-07-28T15:53:06.749Z,25.63
2018-07-28T15:55:35.556Z,25.66
2018-07-28T15:58:04.521Z,25.64
2018-07-28T16:00:33.338Z,25.43
2018-07-28T16:03:02.162Z,25.57
2018-07-28T16:05:31.048Z,25.63
2018-07-28T16:07:59.969Z,25.64
2018-07-28T16:10:28.813Z,25.67
2018-07-28T16:12:57.602Z,25.72
2018-07-28T16:15:26.377Z,25.75
2018-07-28T16:17:55.164Z,25.70
2018-07-28T16:20:24.043Z,25.69
2018-07-28T16:22:52.956Z,25.64
2018-07-28T16:25:21.773Z,25.64
2018-07-28T16:27:50.627Z,25.58
2018-07-28T16:30:19.427Z,25.52
2018-07-28T16:32:48.288Z,25.55
2018-07-28T16:35:17.096Z,25.60
2018-07-28T16:37:45.997Z,25.62
2018-07-28T16:40:15.030Z,23.73
2018-07-28T16:42:43.848Z,25.63
2018-07-28T16:45:12.668Z,25.55
2018-07-28T16:47:41.552Z,25.57
2018-07-28T16:50:10.565Z,25.55
2018-07-28T16:52:39.527Z,25.51
2018-07-28T16:55:08.388Z,25.42
2018-07-28T16:57:37.263Z,25.45
2018-07-28T17:00:06.431Z,25.41
2018-07-28T17:02:35.236Z,25.46
2018-07-28T17:05:04.317Z,25.53
2018-07-28T17:07:33.150Z,25.54
2018-07-28T17:10:01.984Z,25.46
2018-07-28T17:12:30.801Z,25.52
2018-07-28T17:14:59.631Z,25.49
2018-07-28T17:17:28.441Z,25.43
2018-07-28T17:19:57.267Z,25.47
2018-07-28T17:22:26.163Z,25.52
2018-07-28T17:24:54.991Z,25.48
2018-07-28T17:27:23.880Z,25.46
2018-07-28T17:29:52.780Z,25.50
2018-07-28T17:32:21.662Z,25.36
2018-07-28T17:34:50.461Z,25.31
2018-07-28T17:37:19.273Z,25.31
2018-07-28T17:39:48.047Z,25.22
2018-07-28T17:42:17.004Z,25.30
2018-07-28T17:44:45.870Z,25.10
2018-07-28T17:47:14.689Z,25.29
2018-07-28T17:49:43.477Z,25.27
2018-07-28T17:52:12.309Z,25.00
2018-07-28T17:54:41.084Z,24.89
2018-07-28T17:57:09.949Z,24.90
2018-07-28T17:59:38.754Z,25.00
2018-07-28T18:02:07.585Z,25.03
2018-07-28T18:04:36.483Z,24.94
2018-07-28T18:07:05.442Z,24.74
2018-07-28T18:09:34.301Z,24.81
2018-07-28T18:12:03.124Z,24.87
2018-07-28T18:14:31.965Z,24.52
2018-07-28T18:17:00.757Z,24.63
2018-07-28T18:19:29.601Z,24.58
2018-07-28T18:21:58.386Z,24.61
2018-07-28T18:24:27.173Z,24.26
2018-07-28T18:26:56.123Z,24.52
2018-07-28T18:29:24.930Z,24.46
2018-07-28T18:31:53.841Z,24.60
2018-07-28T18:34:22.638Z,24.46
2018-07-28T18:36:51.501Z,24.57
2018-07-28T18:39:20.323Z,24.44
2018-07-28T18:41:49.166Z,24.41
2018-07-28T18:44:18.037Z,24.50
2018-07-28T18:46:46.897Z,24.50
2018-07-28T18:49:15.694Z,24.52
2018-07-28T18:51:44.499Z,24.50
2018-07-28T18:54:13.367Z,24.36
2018-07-28T18:56:42.262Z,24.29
2018-07-28T18:59:11.081Z,24.41
2018-07-28T19:01:39.986Z,24.36
2018-07-28T19:04:08.858Z,24.33
2018-07-28T19:06:37.680Z,24.22
2018-07-28T19:09:13.350Z,24.28
2018-07-28T19:11:42.933Z,24.21
2018-07-28T19:14:16.909Z,24.15
2018-07-28T19:16:46.273Z,24.30
2018-07-28T19:19:16.553Z,24.16
2018-07-28T19:21:46.193Z,24.07
2018-07-28T19:24:15.028Z,24.18
2018-07-28T19:26:43.857Z,24.16
2018-07-28T19:29:17.860Z,24.07
2018-07-28T19:31:53.707Z,24.08
2018-07-28T19:34:22.502Z,24.12
2018-07-28T19:37:07.306Z,23.97
2018-07-28T19:39:36.169Z,23.97
2018-07-28T19:42:10.221Z,23.86
2018-07-28T19:44:39.152Z,23.84
2018-07-28T19:47:08.014Z,24.00
2018-07-28T19:49:36.812Z,24.01
2018-07-28T19:52:05.649Z,24.05
2018-07-28T19:54:34.482Z,24.03
2018-07-28T19:57:03.331Z,23.85
2018-07-28T19:59:32.182Z,23.98
2018-07-28T20:02:01.012Z,23.70
2018-07-28T20:04:29.865Z,23.74
2018-07-28T20:06:58.672Z,23.70
2018-07-28T20:09:27.508Z,23.84
2018-07-28T20:11:56.334Z,23.72
2018-07-28T20:14:25.182Z,23.79
2018-07-28T20:16:54.047Z,23.83
2018-07-28T20:19:22.884Z,23.79
2018-07-28T20:21:51.732Z,23.77
2018-07-28T20:24:20.536Z,23.69
2018-07-28T20:26:49.355Z,23.80
2018-07-28T20:29:18.116Z,23.74
2018-07-28T20:31:46.961Z,23.78
2018-07-28T20:34:15.777Z,23.78
2018-07-28T20:36:44.604Z,23.52
2018-07-28T20:39:13.859Z,23.66
2018-07-28T20:41:42.749Z,23.76
2018-07-28T20:44:11.748Z,23.69
2018-07-28T20:46:40.640Z,23.73
2018-07-28T20:49:09.479Z,23.73
2018-07-28T20:51:38.345Z,23.76
2018-07-28T20:54:07.582Z,23.58
2018-07-28T20:56:36.479Z,23.78
2018-07-28T20:59:05.278Z,23.69
2018-07-28T21:01:34.115Z,23.65
2018-07-28T21:04:02.971Z,23.73
2018-07-28T21:06:31.990Z,23.64
2018-07-28T21:09:00.817Z,23.68
2018-07-28T21:11:29.948Z,23.60
2018-07-28T21:13:58.754Z,23.66
2018-07-28T21:16:27.635Z,23.67
2018-07-28T21:18:56.424Z,23.70
2018-07-28T21:21:25.226Z,23.67
2018-07-28T21:23:54.041Z,23.64
2018-07-28T21:26:22.891Z,23.49
2018-07-28T21:28:51.713Z,23.45
2018-07-28T21:31:20.577Z,23.59
2018-07-28T21:33:49.417Z,23.53
2018-07-28T21:36:18.256Z,23.58
2018-07-28T21:38:47.070Z,23.56
2018-07-28T21:41:15.879Z,23.57
2018-07-28T21:43:44.723Z,23.58
2018-07-28T21:46:13.547Z,23.47
2018-07-28T21:48:42.338Z,23.50
2018-07-28T21:51:11.158Z,23.43
2018-07-28T21:53:40.007Z,23.42
2018-07-28T21:56:08.841Z,23.37
2018-07-28T21:58:37.686Z,23.39
2018-07-28T22:01:13.568Z,23.33
2018-07-28T22:03:42.537Z,23.43
2018-07-28T22:06:11.349Z,23.44
2018-07-28T22:08:40.165Z,23.47
2018-07-28T22:11:09.067Z,23.27
2018-07-28T22:13:37.916Z,23.50
2018-07-28T22:16:06.794Z,23.41
2018-07-28T22:18:35.679Z,23.42
2018-07-28T22:21:04.544Z,23.40
2018-07-28T22:23:33.375Z,23.50
2018-07-28T22:26:02.220Z,23.54
2018-07-28T22:28:31.128Z,23.58
2018-07-28T22:30:59.965Z,23.60
2018-07-28T22:33:28.822Z,23.58
2018-07-28T22:35:57.633Z,23.65
2018-07-28T22:38:26.544Z,23.67
2018-07-28T22:40:55.376Z,23.69
2018-07-28T22:43:24.180Z,23.71
2018-07-28T22:45:53.040Z,23.68
2018-07-28T22:48:21.913Z,23.63
2018-07-28T22:50:50.729Z,23.63
2018-07-28T22:53:19.533Z,23.67
2018-07-28T22:55:48.344Z,23.62
2018-07-28T22:58:17.187Z,23.58
2018-07-28T23:00:46.054Z,23.60
2018-07-28T23:03:14.868Z,23.58
2018-07-28T23:05:43.719Z,23.55
2018-07-28T23:08:12.565Z,23.47
2018-07-28T23:10:41.576Z,23.49
2018-07-28T23:13:10.406Z,23.54
2018-07-28T23:15:39.226Z,23.49
2018-07-28T23:18:08.203Z,23.50
2018-07-28T23:20:37.014Z,23.50
2018-07-28T23:23:05.812Z,23.43
2018-07-28T23:25:34.653Z,23.49
2018-07-28T23:28:03.476Z,23.43
2018-07-28T23:30:32.328Z,23.43
2018-07-28T23:33:01.155Z,23.43
2018-07-28T23:35:29.970Z,23.44
2018-07-28T23:37:58.762Z,23.39
2018-07-28T23:40:27.603Z,23.39
2018-07-28T23:42:56.385Z,23.38
2018-07-28T23:45:25.185Z,23.42
2018-07-28T23:47:54.010Z,23.36
2018-07-28T23:50:22.850Z,23.38
2018-07-28T23:52:51.670Z,23.31
2018-07-28T23:55:20.476Z,23.37
2018-07-28T23:57:49.302Z,23.39
